Time;durP1;ratioP1;P1;durP2;ratioP2;P2;SDS_P1;SDS_P2;PMS_P1;PMS_P2;Temp;Humidity;BMP_temperature;BMP_pressure;BME280_temperature;BME280_humidity;BME280_pressure;Samples;Min_cycle;Max_cycle;Signal;HPM_P1;HPM_P2
2023/12/12 00:01:34;;;;;;;31.85;11.90;;;;;;;;;;5022694;28;20229;-74
2023/12/12 00:03:59;;;;;;;34.40;12.02;;;;;;;;;;5023961;28;20605;-74
2023/12/12 00:06:25;;;;;;;32.70;13.38;;;;;;;;;;5035285;28;20185;-74
2023/12/12 00:08:50;;;;;;;32.00;13.55;;;;;;;;;;5034492;28;20258;-74
2023/12/12 00:11:16;;;;;;;29.38;11.90;;;;;;;;;;5028543;28;20544;-74
2023/12/12 00:13:41;;;;;;;34.07;13.87;;;;;;;;;;5027325;28;20721;-74
2023/12/12 00:16:08;;;;;;;37.90;13.63;;;;;;;;;;5024886;28;20276;-74
2023/12/12 00:18:34;;;;;;;38.80;13.55;;;;;;;;;;5030051;28;20216;-74
2023/12/12 00:21:01;;;;;;;34.57;12.37;;;;;;;;;;5035319;28;20626;-74
2023/12/12 00:23:26;;;;;;;34.45;12.25;;;;;;;;;;5022331;28;20177;-74
2023/12/12 00:25:51;;;;;;;29.53;13.07;;;;;;;;;;5012908;28;20604;-74
2023/12/12 00:28:17;;;;;;;35.63;12.45;;;;;;;;;;5019370;28;20210;-74
2023/12/12 00:30:42;;;;;;;24.67;12.13;;;;;;;;;;5024613;28;20591;-74
2023/12/12 00:33:08;;;;;;;29.30;13.10;;;;;;;;;;5035463;28;20193;-74
2023/12/12 00:35:33;;;;;;;35.50;13.05;;;;;;;;;;5027973;28;20263;-74
2023/12/12 00:37:58;;;;;;;32.17;13.37;;;;;;;;;;5019788;28;20187;-74
2023/12/12 00:40:24;;;;;;;31.70;12.73;;;;;;;;;;5036340;28;20194;-74
2023/12/12 00:42:49;;;;;;;34.05;13.15;;;;;;;;;;5019329;28;20195;-74
2023/12/12 00:45:15;;;;;;;33.60;13.35;;;;;;;;;;5035631;28;20189;-74
2023/12/12 00:47:41;;;;;;;33.65;13.85;;;;;;;;;;5026403;28;20554;-74
2023/12/12 00:50:07;;;;;;;37.07;13.40;;;;;;;;;;5029581;28;20186;-74
2023/12/12 00:52:32;;;;;;;36.33;14.18;;;;;;;;;;5020700;28;20194;-74
2023/12/12 00:54:59;;;;;;;41.13;14.00;;;;;;;;;;5026008;28;20178;-74
2023/12/12 00:57:25;;;;;;;34.53;14.80;;;;;;;;;;5023514;28;20181;-74
2023/12/12 00:59:51;;;;;;;36.07;14.70;;;;;;;;;;5027999;28;20538;-74
2023/12/12 01:02:16;;;;;;;36.43;15.23;;;;;;;;;;5048016;28;20281;-74
2023/12/12 01:04:43;;;;;;;33.47;14.57;;;;;;;;;;5025562;28;20185;-74
2023/12/12 01:07:08;;;;;;;37.72;13.52;;;;;;;;;;5024385;28;20182;-74
2023/12/12 01:09:34;;;;;;;38.97;15.20;;;;;;;;;;5032131;28;20189;-74
2023/12/12 01:11:59;;;;;;;38.28;15.20;;;;;;;;;;5032313;28;20296;-74
2023/12/12 01:14:25;;;;;;;44.13;15.40;;;;;;;;;;5024003;28;20222;-74
2023/12/12 01:16:50;;;;;;;29.13;14.83;;;;;;;;;;5034528;28;20234;-74
2023/12/12 01:19:15;;;;;;;41.63;15.10;;;;;;;;;;5030744;28;20213;-74
2023/12/12 01:21:41;;;;;;;34.88;15.30;;;;;;;;;;5031676;28;20182;-74
2023/12/12 01:24:07;;;;;;;34.85;15.68;;;;;;;;;;5028440;28;20238;-74
2023/12/12 01:26:32;;;;;;;35.88;14.38;;;;;;;;;;5031821;28;20216;-74
2023/12/12 01:28:57;;;;;;;32.28;12.85;;;;;;;;;;5030631;28;20637;-74
2023/12/12 01:31:23;;;;;;;32.40;14.68;;;;;;;;;;5023534;28;20273;-74
2023/12/12 01:33:51;;;;;;;36.67;15.40;;;;;;;;;;5019941;28;20197;-74
2023/12/12 01:36:16;;;;;;;39.53;15.57;;;;;;;;;;5036124;28;20204;-74
2023/12/12 01:38:44;;;;;;;37.50;14.73;;;;;;;;;;5033354;28;20185;-74
2023/12/12 01:41:09;;;;;;;36.25;14.68;;;;;;;;;;5026593;28;20388;-74
2023/12/12 01:43:35;;;;;;;34.40;15.07;;;;;;;;;;5029702;28;20277;-74
2023/12/12 01:46:02;;;;;;;31.73;13.63;;;;;;;;;;5024606;28;20186;-74
2023/12/12 01:48:29;;;;;;;39.40;14.05;;;;;;;;;;5026116;28;20193;-74
2023/12/12 01:50:55;;;;;;;39.78;14.90;;;;;;;;;;5021631;28;20440;-74
2023/12/12 01:53:28;;;;;;;41.15;14.40;;;;;;;;;;5031323;28;20198;-74
2023/12/12 01:55:55;;;;;;;40.10;14.32;;;;;;;;;;5024131;28;20208;-74
2023/12/12 01:58:22;;;;;;;34.13;14.68;;;;;;;;;;5029424;28;20279;-74
2023/12/12 02:00:48;;;;;;;35.47;15.10;;;;;;;;;;5024755;28;20241;-75
2023/12/12 02:03:15;;;;;;;38.28;15.88;;;;;;;;;;5030010;28;20572;-75
2023/12/12 02:05:41;;;;;;;40.30;15.23;;;;;;;;;;5028458;28;20571;-75
2023/12/12 02:08:07;;;;;;;38.72;15.80;;;;;;;;;;5027627;28;20199;-75
2023/12/12 02:10:33;;;;;;;30.60;14.35;;;;;;;;;;5039946;28;20645;-75
2023/12/12 02:12:58;;;;;;;33.67;15.15;;;;;;;;;;5037635;28;20632;-75
2023/12/12 02:15:24;;;;;;;45.92;16.35;;;;;;;;;;5016583;28;20227;-75
2023/12/12 02:17:50;;;;;;;41.65;16.65;;;;;;;;;;5028920;28;20225;-76
2023/12/12 02:20:15;;;;;;;37.70;15.05;;;;;;;;;;5034119;28;20210;-75
2023/12/12 02:22:42;;;;;;;38.92;15.48;;;;;;;;;;5027390;28;20635;-75
2023/12/12 02:25:08;;;;;;;33.43;15.13;;;;;;;;;;5029910;28;20247;-75
2023/12/12 02:27:33;;;;;;;37.10;14.90;;;;;;;;;;5033520;28;20194;-76
2023/12/12 02:29:59;;;;;;;35.17;15.40;;;;;;;;;;5045926;28;20262;-77
2023/12/12 02:32:28;;;;;;;37.33;15.95;;;;;;;;;;5030107;28;20760;-77
2023/12/12 02:34:53;;;;;;;36.70;14.52;;;;;;;;;;5026453;28;20652;-78
2023/12/12 02:37:19;;;;;;;35.20;13.73;;;;;;;;;;5012484;28;20232;-78
2023/12/12 02:39:44;;;;;;;29.77;13.45;;;;;;;;;;5031121;28;20178;-77
2023/12/12 02:42:09;;;;;;;30.02;14.02;;;;;;;;;;5007567;28;20189;-77
2023/12/12 02:44:35;;;;;;;34.92;14.80;;;;;;;;;;5021435;28;20328;-77
2023/12/12 02:47:00;;;;;;;32.38;14.20;;;;;;;;;;5030379;28;20186;-77
2023/12/12 02:49:25;;;;;;;33.25;13.45;;;;;;;;;;5012831;28;20192;-77
2023/12/12 02:51:51;;;;;;;36.08;13.48;;;;;;;;;;5027738;28;20186;-77
2023/12/12 02:54:16;;;;;;;29.35;13.30;;;;;;;;;;5029371;28;20273;-77
2023/12/12 02:56:42;;;;;;;36.35;13.85;;;;;;;;;;5035557;28;20668;-78
2023/12/12 02:59:08;;;;;;;37.78;13.38;;;;;;;;;;5032511;28;20224;-78
2023/12/12 03:01:33;;;;;;;32.60;13.15;;;;;;;;;;5027936;28;20614;-78
2023/12/12 03:03:58;;;;;;;40.13;13.13;;;;;;;;;;5043724;28;20178;-78
2023/12/12 03:06:24;;;;;;;30.27;13.38;;;;;;;;;;5025450;28;20501;-78
2023/12/12 03:08:49;;;;;;;29.95;13.57;;;;;;;;;;5034547;28;20645;-78
2023/12/12 03:11:15;;;;;;;28.45;12.93;;;;;;;;;;5019617;28;20194;-78
2023/12/12 03:13:40;;;;;;;33.90;14.15;;;;;;;;;;5021751;28;20183;-78
2023/12/12 03:16:06;;;;;;;33.55;13.93;;;;;;;;;;5029261;28;20218;-78
2023/12/12 03:18:31;;;;;;;32.60;13.82;;;;;;;;;;5024337;28;20264;-78
2023/12/12 03:20:57;;;;;;;31.95;12.98;;;;;;;;;;5032555;28;20202;-77
2023/12/12 03:23:22;;;;;;;37.45;13.70;;;;;;;;;;5016088;28;20190;-78
2023/12/12 03:25:48;;;;;;;35.17;12.75;;;;;;;;;;5027504;28;20205;-78
2023/12/12 03:28:13;;;;;;;35.33;13.65;;;;;;;;;;5023397;28;20186;-77
2023/12/12 03:30:39;;;;;;;27.80;13.30;;;;;;;;;;5049544;28;20307;-78
2023/12/12 03:33:05;;;;;;;30.25;13.10;;;;;;;;;;5034803;28;20286;-77
2023/12/12 03:35:31;;;;;;;29.65;13.30;;;;;;;;;;5020979;28;20221;-77
2023/12/12 03:37:56;;;;;;;23.97;12.17;;;;;;;;;;5038307;28;20210;-77
2023/12/12 03:40:22;;;;;;;31.50;13.38;;;;;;;;;;5035379;28;20197;-77
2023/12/12 03:42:47;;;;;;;32.88;13.88;;;;;;;;;;5034189;28;20190;-78
2023/12/12 03:45:13;;;;;;;33.70;13.57;;;;;;;;;;5025857;28;20196;-77
2023/12/12 03:47:38;;;;;;;40.13;14.88;;;;;;;;;;5030963;28;20661;-78
2023/12/12 03:50:06;;;;;;;38.78;15.88;;;;;;;;;;5013527;28;20250;-77
2023/12/12 03:52:32;;;;;;;31.77;15.15;;;;;;;;;;5027079;28;20217;-77
2023/12/12 03:54:57;;;;;;;45.60;19.40;;;;;;;;;;5012578;28;20209;-77
2023/12/12 03:57:23;;;;;;;42.70;20.85;;;;;;;;;;5026507;28;20719;-77
2023/12/12 03:59:48;;;;;;;52.65;23.23;;;;;;;;;;5014826;28;20209;-77
2023/12/12 04:02:14;;;;;;;55.33;24.10;;;;;;;;;;5034344;28;20264;-77
2023/12/12 04:04:39;;;;;;;55.53;24.05;;;;;;;;;;5033838;28;20186;-77
2023/12/12 04:07:05;;;;;;;48.60;24.25;;;;;;;;;;5038826;28;20212;-77
2023/12/12 04:09:30;;;;;;;56.30;26.73;;;;;;;;;;5032587;28;20199;-77
2023/12/12 04:11:56;;;;;;;66.70;29.02;;;;;;;;;;5043969;28;20433;-77
2023/12/12 04:14:21;;;;;;;60.03;26.73;;;;;;;;;;5027908;28;20192;-77
2023/12/12 04:16:47;;;;;;;60.42;29.50;;;;;;;;;;5032036;28;20573;-77
2023/12/12 04:19:12;;;;;;;64.35;31.95;;;;;;;;;;5032533;28;20217;-76
2023/12/12 04:21:41;;;;;;;58.05;29.50;;;;;;;;;;5020586;28;20178;-77
2023/12/12 04:24:07;;;;;;;60.45;29.17;;;;;;;;;;5003176;28;20282;-77
2023/12/12 04:26:32;;;;;;;62.03;30.10;;;;;;;;;;5028019;28;20675;-76
2023/12/12 04:28:58;;;;;;;51.60;24.67;;;;;;;;;;5021077;28;20502;-77
2023/12/12 04:31:23;;;;;;;57.72;26.67;;;;;;;;;;5027879;28;20197;-76
2023/12/12 04:33:49;;;;;;;58.72;26.55;;;;;;;;;;5034674;28;20273;-76
2023/12/12 04:36:14;;;;;;;47.00;25.75;;;;;;;;;;5037140;28;20300;-77
2023/12/12 04:38:40;;;;;;;55.08;26.77;;;;;;;;;;5036014;28;20190;-77
2023/12/12 04:41:06;;;;;;;57.20;26.30;;;;;;;;;;5023324;28;20190;-76
2023/12/12 04:43:31;;;;;;;50.03;25.25;;;;;;;;;;5014643;28;20210;-77
2023/12/12 04:45:57;;;;;;;46.55;24.90;;;;;;;;;;5041215;28;20252;-76
2023/12/12 04:48:22;;;;;;;49.83;23.75;;;;;;;;;;5041779;28;20189;-76
2023/12/12 04:50:48;;;;;;;54.28;25.00;;;;;;;;;;5031069;28;20186;-76
2023/12/12 04:53:14;;;;;;;51.30;25.85;;;;;;;;;;5021293;28;20649;-76
2023/12/12 04:55:40;;;;;;;51.60;25.17;;;;;;;;;;5035927;28;20232;-76
2023/12/12 04:58:05;;;;;;;55.10;26.48;;;;;;;;;;5031815;28;20190;-76
2023/12/12 05:00:31;;;;;;;55.35;25.50;;;;;;;;;;5039334;28;20201;-76
2023/12/12 05:02:56;;;;;;;61.80;26.65;;;;;;;;;;5016162;28;20563;-76
2023/12/12 05:05:22;;;;;;;56.42;25.48;;;;;;;;;;5036601;28;20181;-76
2023/12/12 05:07:47;;;;;;;58.65;24.67;;;;;;;;;;5030124;28;20253;-76
2023/12/12 05:10:13;;;;;;;51.70;24.73;;;;;;;;;;5027796;28;20183;-76
2023/12/12 05:12:38;;;;;;;67.68;26.65;;;;;;;;;;5026154;28;20406;-76
2023/12/12 05:15:04;;;;;;;58.15;25.77;;;;;;;;;;5041949;28;20230;-76
2023/12/12 05:17:30;;;;;;;54.40;27.13;;;;;;;;;;5029674;28;20272;-76
2023/12/12 05:19:56;;;;;;;60.63;26.65;;;;;;;;;;5031783;28;20654;-76
2023/12/12 05:22:21;;;;;;;59.93;25.43;;;;;;;;;;5029590;28;20285;-76
2023/12/12 05:24:47;;;;;;;64.10;26.88;;;;;;;;;;5031378;28;20186;-76
2023/12/12 05:27:12;;;;;;;59.88;25.20;;;;;;;;;;5020554;28;20183;-76
2023/12/12 05:29:37;;;;;;;68.38;26.85;;;;;;;;;;5014627;28;20281;-76
2023/12/12 05:32:03;;;;;;;62.05;27.23;;;;;;;;;;5018963;28;20192;-76
2023/12/12 05:34:28;;;;;;;54.60;25.60;;;;;;;;;;5029678;28;20214;-76
2023/12/12 05:36:54;;;;;;;62.37;26.47;;;;;;;;;;5034319;28;20244;-76
2023/12/12 05:39:19;;;;;;;63.20;27.87;;;;;;;;;;5028468;28;20248;-76
2023/12/12 05:41:48;;;;;;;61.30;28.77;;;;;;;;;;5030961;28;20236;-76
2023/12/12 05:44:14;;;;;;;69.70;29.83;;;;;;;;;;5034231;28;20532;-76
2023/12/12 05:46:39;;;;;;;57.03;26.60;;;;;;;;;;5034852;28;20182;-76
2023/12/12 05:49:05;;;;;;;68.70;28.53;;;;;;;;;;5029856;28;20193;-76
2023/12/12 05:51:34;;;;;;;71.57;31.03;;;;;;;;;;5019800;28;20191;-76
2023/12/12 05:54:00;;;;;;;61.83;30.97;;;;;;;;;;5023374;28;20519;-76
2023/12/12 05:56:25;;;;;;;74.50;33.05;;;;;;;;;;5030069;28;20229;-76
2023/12/12 05:58:51;;;;;;;58.17;30.30;;;;;;;;;;5034798;28;20194;-76
2023/12/12 06:01:17;;;;;;;73.60;31.17;;;;;;;;;;5026631;28;20183;-76
2023/12/12 06:03:43;;;;;;;62.90;33.50;;;;;;;;;;5026088;28;20566;-76
2023/12/12 06:06:09;;;;;;;67.27;32.23;;;;;;;;;;5036532;28;20568;-75
2023/12/12 06:08:36;;;;;;;84.07;35.38;;;;;;;;;;5033142;28;20269;-75
2023/12/12 06:11:01;;;;;;;76.87;33.43;;;;;;;;;;5040920;28;20350;-76
2023/12/12 06:13:28;;;;;;;69.80;31.47;;;;;;;;;;5033814;28;20193;-76
2023/12/12 06:15:53;;;;;;;62.57;30.47;;;;;;;;;;5022101;28;20453;-76
2023/12/12 06:18:18;;;;;;;67.03;31.37;;;;;;;;;;5018728;28;20276;-75
2023/12/12 06:20:45;;;;;;;74.63;31.17;;;;;;;;;;5019711;28;20264;-76
2023/12/12 06:23:12;;;;;;;67.43;28.80;;;;;;;;;;5028137;28;20193;-76
2023/12/12 06:25:38;;;;;;;55.13;26.83;;;;;;;;;;5026431;28;20182;-75
2023/12/12 06:28:03;;;;;;;78.17;31.87;;;;;;;;;;5031684;28;20206;-76
2023/12/12 06:30:29;;;;;;;65.97;29.37;;;;;;;;;;5029801;28;20186;-76
2023/12/12 06:32:55;;;;;;;66.43;31.07;;;;;;;;;;5032025;28;20178;-76
2023/12/12 06:35:22;;;;;;;64.53;30.80;;;;;;;;;;5030972;28;20254;-76
2023/12/12 06:37:48;;;;;;;68.60;30.17;;;;;;;;;;5028575;28;20287;-76
2023/12/12 06:40:14;;;;;;;75.90;30.10;;;;;;;;;;5017060;28;20177;-76
2023/12/12 06:42:40;;;;;;;52.53;26.53;;;;;;;;;;5034756;28;20175;-76
2023/12/12 06:45:10;;;;;;;57.20;26.87;;;;;;;;;;5036543;28;20187;-78
2023/12/12 06:47:35;;;;;;;74.03;29.67;;;;;;;;;;5027784;28;20201;-76
2023/12/12 06:50:03;;;;;;;72.27;27.70;;;;;;;;;;5027694;28;20186;-76
2023/12/12 06:52:28;;;;;;;57.07;25.57;;;;;;;;;;5026923;28;20197;-75
2023/12/12 06:54:55;;;;;;;62.53;28.03;;;;;;;;;;5037234;28;20186;-76
2023/12/12 06:57:20;;;;;;;58.23;27.87;;;;;;;;;;5026819;28;20202;-76
2023/12/12 06:59:46;;;;;;;62.13;27.50;;;;;;;;;;5008833;28;20182;-76
2023/12/12 07:02:11;;;;;;;62.10;26.10;;;;;;;;;;5012761;28;20190;-77
2023/12/12 07:04:38;;;;;;;54.20;24.50;;;;;;;;;;5035002;28;20229;-76
2023/12/12 07:07:03;;;;;;;59.00;26.13;;;;;;;;;;5012644;28;20193;-76
2023/12/12 07:09:29;;;;;;;53.10;24.90;;;;;;;;;;5032860;28;20190;-76
2023/12/12 07:11:54;;;;;;;74.00;26.50;;;;;;;;;;5029054;28;20193;-76
2023/12/12 07:14:20;;;;;;;59.17;25.87;;;;;;;;;;5025758;28;20236;-76
2023/12/12 07:16:45;;;;;;;59.53;24.60;;;;;;;;;;5012175;28;20219;-76
2023/12/12 07:19:11;;;;;;;61.10;25.73;;;;;;;;;;5012778;28;20558;-76
2023/12/12 07:21:41;;;;;;;61.27;25.27;;;;;;;;;;5030756;28;20197;-77
2023/12/12 07:24:07;;;;;;;57.67;24.73;;;;;;;;;;5030900;28;20266;-76
2023/12/12 07:26:33;;;;;;;59.90;22.83;;;;;;;;;;5044888;28;20200;-77
2023/12/12 07:28:59;;;;;;;60.57;24.93;;;;;;;;;;5032392;28;20182;-76
2023/12/12 07:31:24;;;;;;;63.93;26.13;;;;;;;;;;5013454;28;20187;-76
2023/12/12 07:33:50;;;;;;;51.37;24.43;;;;;;;;;;5013939;28;20193;-76
2023/12/12 07:36:15;;;;;;;63.80;25.53;;;;;;;;;;5027017;28;20195;-76
2023/12/12 07:38:41;;;;;;;55.13;23.63;;;;;;;;;;5032726;28;20217;-76
2023/12/12 07:41:07;;;;;;;67.47;24.63;;;;;;;;;;5029367;28;20272;-76
2023/12/12 07:43:32;;;;;;;64.30;25.47;;;;;;;;;;5004364;28;20210;-76
2023/12/12 07:45:58;;;;;;;59.93;24.77;;;;;;;;;;5021956;28;20182;-76
2023/12/12 07:48:23;;;;;;;65.13;24.57;;;;;;;;;;5031056;28;20281;-76
2023/12/12 07:50:49;;;;;;;59.33;24.20;;;;;;;;;;5026558;28;20190;-76
2023/12/12 07:53:14;;;;;;;65.27;24.13;;;;;;;;;;5019686;28;20596;-76
2023/12/12 07:55:40;;;;;;;70.33;25.67;;;;;;;;;;5024129;28;20198;-76
2023/12/12 07:58:05;;;;;;;76.97;26.33;;;;;;;;;;5015221;28;20228;-76
2023/12/12 08:00:31;;;;;;;53.70;24.83;;;;;;;;;;5002804;28;20183;-76
2023/12/12 08:02:56;;;;;;;90.50;27.33;;;;;;;;;;5026786;28;20179;-76
2023/12/12 08:05:22;;;;;;;68.00;26.27;;;;;;;;;;5040127;28;20687;-76
2023/12/12 08:07:48;;;;;;;73.37;26.67;;;;;;;;;;5013207;28;20697;-76
2023/12/12 08:10:14;;;;;;;62.73;25.23;;;;;;;;;;5025235;28;20179;-76
2023/12/12 08:12:39;;;;;;;77.70;26.07;;;;;;;;;;5032173;28;20193;-76
2023/12/12 08:15:05;;;;;;;77.90;24.20;;;;;;;;;;5024270;28;20241;-76
2023/12/12 08:17:30;;;;;;;86.87;27.00;;;;;;;;;;5035578;28;20260;-77
2023/12/12 08:19:56;;;;;;;94.30;26.27;;;;;;;;;;5029503;28;20192;-77
2023/12/12 08:22:21;;;;;;;104.40;28.33;;;;;;;;;;5032346;28;20190;-77
2023/12/12 08:24:50;;;;;;;105.53;27.63;;;;;;;;;;5030957;28;20179;-76
2023/12/12 08:27:17;;;;;;;111.13;28.00;;;;;;;;;;5016711;28;20222;-77
2023/12/12 08:29:43;;;;;;;126.20;28.20;;;;;;;;;;4997220;28;20179;-77
2023/12/12 08:32:08;;;;;;;130.80;28.50;;;;;;;;;;5031056;28;20369;-77
2023/12/12 08:34:34;;;;;;;174.50;30.23;;;;;;;;;;5022973;28;20191;-76
2023/12/12 08:37:01;;;;;;;87.17;23.77;;;;;;;;;;5038189;28;20262;-77
2023/12/12 08:39:27;;;;;;;147.93;29.47;;;;;;;;;;5021950;28;20177;-76
2023/12/12 08:41:52;;;;;;;115.53;24.63;;;;;;;;;;5016318;28;20198;-76
2023/12/12 08:44:18;;;;;;;170.83;28.90;;;;;;;;;;4993333;28;20197;-75
2023/12/12 08:46:43;;;;;;;225.53;32.20;;;;;;;;;;5027314;28;20677;-75
2023/12/12 08:49:09;;;;;;;180.40;29.73;;;;;;;;;;5037176;28;20183;-75
2023/12/12 08:51:35;;;;;;;199.10;30.70;;;;;;;;;;5022222;28;20186;-75
2023/12/12 08:54:02;;;;;;;114.20;26.80;;;;;;;;;;5027480;28;20607;-75
2023/12/12 08:56:28;;;;;;;182.10;30.77;;;;;;;;;;5027016;28;20211;-75
2023/12/12 08:58:54;;;;;;;190.60;31.77;;;;;;;;;;5021401;28;20195;-75
2023/12/12 09:01:20;;;;;;;148.83;28.27;;;;;;;;;;5023616;28;20477;-75
2023/12/12 09:03:46;;;;;;;148.67;28.13;;;;;;;;;;5018945;28;20291;-75
2023/12/12 09:06:11;;;;;;;178.07;30.80;;;;;;;;;;5025976;28;20194;-75
2023/12/12 09:08:41;;;;;;;128.93;27.90;;;;;;;;;;5020903;28;20273;-75
2023/12/12 09:11:11;;;;;;;125.87;26.93;;;;;;;;;;5016515;28;20191;-76
2023/12/12 09:13:37;;;;;;;145.90;29.43;;;;;;;;;;5037300;28;20557;-76
2023/12/12 09:16:03;;;;;;;150.40;28.10;;;;;;;;;;5012248;28;20227;-75
2023/12/12 09:18:28;;;;;;;125.23;27.33;;;;;;;;;;5011892;28;20296;-75
2023/12/12 09:20:54;;;;;;;112.87;25.57;;;;;;;;;;5014169;28;20245;-75
2023/12/12 09:23:20;;;;;;;109.28;25.13;;;;;;;;;;5040650;28;20288;-75
2023/12/12 09:25:46;;;;;;;145.30;27.27;;;;;;;;;;5034011;28;20567;-75
2023/12/12 09:28:12;;;;;;;137.52;28.73;;;;;;;;;;5019424;28;20704;-75
2023/12/12 09:30:37;;;;;;;146.00;29.13;;;;;;;;;;5032024;28;20190;-75
2023/12/12 09:33:03;;;;;;;124.68;27.33;;;;;;;;;;5033598;28;20205;-75
2023/12/12 09:35:28;;;;;;;101.25;27.02;;;;;;;;;;5031320;28;20206;-76
2023/12/12 09:37:54;;;;;;;175.40;31.40;;;;;;;;;;5020794;28;20548;-76
2023/12/12 09:40:20;;;;;;;132.27;30.48;;;;;;;;;;5013358;28;20288;-76
2023/12/12 09:42:48;;;;;;;120.53;29.63;;;;;;;;;;5016157;28;20187;-76
2023/12/12 09:45:15;;;;;;;132.25;29.67;;;;;;;;;;5018657;28;20186;-76
2023/12/12 09:47:45;;;;;;;145.60;29.85;;;;;;;;;;5000514;28;20182;-76
2023/12/12 09:50:11;;;;;;;117.07;30.00;;;;;;;;;;5012026;28;20252;-76
2023/12/12 09:52:37;;;;;;;117.35;29.85;;;;;;;;;;5017813;28;20709;-76
2023/12/12 09:55:03;;;;;;;99.10;29.48;;;;;;;;;;5031471;28;20218;-77
2023/12/12 09:57:30;;;;;;;115.93;29.65;;;;;;;;;;5016494;28;20226;-76
2023/12/12 09:59:59;;;;;;;120.88;28.88;;;;;;;;;;5036239;28;20186;-77
2023/12/12 10:02:33;;;;;;;113.05;29.45;;;;;;;;;;5019869;28;20182;-77
2023/12/12 10:04:59;;;;;;;85.40;29.17;;;;;;;;;;5033693;28;20185;-76
2023/12/12 10:07:26;;;;;;;91.53;28.70;;;;;;;;;;5022812;28;20596;-76
2023/12/12 10:09:53;;;;;;;89.63;28.27;;;;;;;;;;5023209;28;20660;-76
2023/12/12 10:12:18;;;;;;;94.60;26.48;;;;;;;;;;5037015;28;20705;-77
2023/12/12 10:14:45;;;;;;;92.20;26.15;;;;;;;;;;5015379;28;20183;-77
2023/12/12 10:17:11;;;;;;;85.88;26.50;;;;;;;;;;5035285;28;20300;-77
2023/12/12 10:19:38;;;;;;;83.80;26.05;;;;;;;;;;5018787;28;20269;-76
2023/12/12 10:22:08;;;;;;;80.88;24.67;;;;;;;;;;5035696;28;20213;-77
2023/12/12 10:24:35;;;;;;;78.88;23.77;;;;;;;;;;5021918;28;20223;-76
2023/12/12 10:27:01;;;;;;;83.57;24.15;;;;;;;;;;5021161;28;20261;-77
2023/12/12 10:29:28;;;;;;;84.75;26.10;;;;;;;;;;5033706;28;20532;-77
2023/12/12 10:31:54;;;;;;;76.72;24.15;;;;;;;;;;5029637;28;20186;-77
2023/12/12 10:34:23;;;;;;;79.10;24.33;;;;;;;;;;5030915;28;20669;-77
2023/12/12 10:36:49;;;;;;;85.45;23.73;;;;;;;;;;5024606;28;20281;-76
2023/12/12 10:39:15;;;;;;;75.45;23.63;;;;;;;;;;5032079;28;20199;-76
2023/12/12 10:41:50;;;;;;;76.60;23.10;;;;;;;;;;5016520;28;20186;-76
2023/12/12 10:44:19;;;;;;;63.38;22.25;;;;;;;;;;5019220;28;20197;-77
2023/12/12 10:46:45;;;;;;;72.60;22.88;;;;;;;;;;5026382;28;20201;-76
2023/12/12 10:49:11;;;;;;;74.25;22.92;;;;;;;;;;5026684;28;20194;-77
2023/12/12 10:51:37;;;;;;;90.35;26.00;;;;;;;;;;5018459;28;20650;-77
2023/12/12 10:54:04;;;;;;;60.72;21.75;;;;;;;;;;5017257;28;20182;-77
2023/12/12 10:56:35;;;;;;;67.38;22.98;;;;;;;;;;5028482;28;20207;-77
2023/12/12 10:59:02;;;;;;;75.18;20.35;;;;;;;;;;5025906;28;20187;-77
2023/12/12 11:01:29;;;;;;;64.13;21.60;;;;;;;;;;5030806;28;20274;-78
2023/12/12 11:03:57;;;;;;;73.38;21.10;;;;;;;;;;5027126;28;20297;-78
2023/12/12 11:06:24;;;;;;;65.88;21.65;;;;;;;;;;5017806;28;20195;-77
2023/12/12 11:08:52;;;;;;;69.35;21.10;;;;;;;;;;5030039;28;20273;-77
2023/12/12 11:11:19;;;;;;;67.25;20.30;;;;;;;;;;5033753;28;20549;-77
2023/12/12 11:13:46;;;;;;;65.00;20.58;;;;;;;;;;5033014;28;20610;-78
2023/12/12 11:16:13;;;;;;;72.03;20.63;;;;;;;;;;5032775;28;20267;-77
2023/12/12 11:18:41;;;;;;;69.47;20.10;;;;;;;;;;5025722;28;20229;-77
2023/12/12 11:21:07;;;;;;;64.15;19.50;;;;;;;;;;5014597;28;20603;-77
2023/12/12 11:23:42;;;;;;;58.17;19.63;;;;;;;;;;5008009;28;20225;-77
2023/12/12 11:26:09;;;;;;;67.05;20.02;;;;;;;;;;5054571;28;20212;-77
2023/12/12 11:28:36;;;;;;;69.20;19.13;;;;;;;;;;5030207;28;20182;-78
2023/12/12 11:31:02;;;;;;;56.78;18.08;;;;;;;;;;5022877;28;20194;-77
2023/12/12 11:33:30;;;;;;;64.72;18.83;;;;;;;;;;5022414;28;20211;-77
2023/12/12 11:35:56;;;;;;;52.75;18.95;;;;;;;;;;5031619;28;20638;-77
2023/12/12 11:38:34;;;;;;;57.45;18.58;;;;;;;;;;5007909;28;20192;-77
2023/12/12 11:41:13;;;;;;;58.50;19.52;;;;;;;;;;5030196;28;20566;-77
2023/12/12 11:43:40;;;;;;;59.92;18.15;;;;;;;;;;5030670;28;20182;-77
2023/12/12 11:46:15;;;;;;;55.90;17.25;;;;;;;;;;5028924;28;20236;-77
2023/12/12 11:48:41;;;;;;;56.67;17.50;;;;;;;;;;5029978;28;20182;-77
2023/12/12 11:51:35;;;;;;;56.72;17.35;;;;;;;;;;5033967;28;20270;-77
2023/12/12 11:54:08;;;;;;;47.38;15.18;;;;;;;;;;5014530;28;20194;-77
2023/12/12 11:56:33;;;;;;;48.92;16.05;;;;;;;;;;5021756;28;20257;-77
2023/12/12 11:59:00;;;;;;;69.25;16.98;;;;;;;;;;5053366;28;20189;-77
2023/12/12 12:01:26;;;;;;;58.55;16.65;;;;;;;;;;5027221;28;20625;-77
2023/12/12 12:03:52;;;;;;;55.30;16.85;;;;;;;;;;5021307;28;20276;-77
2023/12/12 12:06:18;;;;;;;51.45;15.48;;;;;;;;;;5028429;28;20170;-77
2023/12/12 12:08:43;;;;;;;56.53;17.55;;;;;;;;;;5013041;28;20248;-77
2023/12/12 12:11:11;;;;;;;46.72;16.85;;;;;;;;;;5008057;28;20186;-77
2023/12/12 12:13:40;;;;;;;52.45;17.40;;;;;;;;;;5029238;28;20548;-77
2023/12/12 12:16:08;;;;;;;52.47;16.02;;;;;;;;;;5021632;28;20257;-77
2023/12/12 12:18:34;;;;;;;50.25;16.05;;;;;;;;;;5015701;28;20210;-77
2023/12/12 12:21:03;;;;;;;36.70;15.23;;;;;;;;;;5016376;28;20728;-77
2023/12/12 12:23:35;;;;;;;55.72;17.05;;;;;;;;;;5014109;28;20389;-77
2023/12/12 12:26:01;;;;;;;46.08;15.07;;;;;;;;;;5040287;28;20178;-77
2023/12/12 12:28:35;;;;;;;44.63;15.75;;;;;;;;;;5031150;28;20221;-77
2023/12/12 12:31:02;;;;;;;44.20;15.00;;;;;;;;;;5015805;28;20523;-77
2023/12/12 12:33:35;;;;;;;40.53;15.00;;;;;;;;;;5024360;28;20190;-77
2023/12/12 12:36:01;;;;;;;53.90;15.68;;;;;;;;;;5026547;28;20540;-77
2023/12/12 12:38:31;;;;;;;42.63;14.68;;;;;;;;;;5034308;28;20273;-77
2023/12/12 12:40:57;;;;;;;37.53;13.38;;;;;;;;;;5025292;28;20188;-77
2023/12/12 12:43:23;;;;;;;45.13;14.40;;;;;;;;;;5020463;28;20546;-76
2023/12/12 12:45:49;;;;;;;48.40;13.98;;;;;;;;;;5026165;28;20225;-77
2023/12/12 12:48:15;;;;;;;48.03;15.10;;;;;;;;;;5046355;28;20186;-79
2023/12/12 12:50:42;;;;;;;52.33;13.98;;;;;;;;;;5028279;28;20186;-76
2023/12/12 12:53:11;;;;;;;40.30;12.98;;;;;;;;;;5013017;28;20250;-77
2023/12/12 12:55:40;;;;;;;46.40;13.77;;;;;;;;;;4994224;28;20634;-77
2023/12/12 12:58:10;;;;;;;45.40;13.85;;;;;;;;;;5038312;28;20198;-77
2023/12/12 13:00:36;;;;;;;47.42;13.25;;;;;;;;;;5027985;28;20217;-77
2023/12/12 13:03:03;;;;;;;53.78;14.55;;;;;;;;;;5017122;28;20498;-77
2023/12/12 13:05:29;;;;;;;43.58;13.55;;;;;;;;;;5019432;28;20831;-77
2023/12/12 13:07:55;;;;;;;37.40;12.65;;;;;;;;;;5027087;28;20193;-77
2023/12/12 13:10:21;;;;;;;45.85;13.98;;;;;;;;;;5030329;28;20236;-76
2023/12/12 13:12:47;;;;;;;37.25;12.95;;;;;;;;;;5028441;28;20191;-76
2023/12/12 13:15:12;;;;;;;40.72;12.68;;;;;;;;;;5029868;28;20566;-77
2023/12/12 13:17:38;;;;;;;45.38;10.70;;;;;;;;;;5030819;28;20491;-76
2023/12/12 13:20:11;;;;;;;38.38;11.77;;;;;;;;;;5016447;28;20194;-76
2023/12/12 13:22:44;;;;;;;33.33;10.52;;;;;;;;;;5019682;28;20219;-76
2023/12/12 13:25:10;;;;;;;41.72;12.20;;;;;;;;;;5021898;28;20306;-75
2023/12/12 13:27:37;;;;;;;42.95;11.52;;;;;;;;;;5020729;28;20194;-76
2023/12/12 13:30:06;;;;;;;40.60;13.02;;;;;;;;;;5028260;28;20194;-76
2023/12/12 13:32:38;;;;;;;34.28;11.25;;;;;;;;;;5026353;28;20244;-76
2023/12/12 13:35:11;;;;;;;35.92;11.88;;;;;;;;;;5040148;28;20581;-75
2023/12/12 13:37:37;;;;;;;39.10;12.90;;;;;;;;;;5020514;28;20209;-75
2023/12/12 13:40:08;;;;;;;37.22;13.02;;;;;;;;;;5029945;28;20209;-75
2023/12/12 13:42:35;;;;;;;45.45;11.18;;;;;;;;;;5033236;28;20512;-75
2023/12/12 13:45:01;;;;;;;32.47;12.25;;;;;;;;;;5025686;28;20205;-75
2023/12/12 13:47:29;;;;;;;40.67;11.88;;;;;;;;;;5026065;28;20191;-75
2023/12/12 13:49:57;;;;;;;43.25;12.35;;;;;;;;;;5014915;28;20269;-75
2023/12/12 13:52:23;;;;;;;35.67;10.43;;;;;;;;;;5045681;28;20232;-75
2023/12/12 13:54:49;;;;;;;33.92;10.30;;;;;;;;;;5027765;28;20211;-75
2023/12/12 13:57:14;;;;;;;39.50;10.20;;;;;;;;;;5015629;28;20277;-75
2023/12/12 13:59:40;;;;;;;30.83;9.73;;;;;;;;;;5019530;28;20308;-76
2023/12/12 14:02:05;;;;;;;35.20;10.07;;;;;;;;;;5011442;28;20195;-75
2023/12/12 14:04:31;;;;;;;32.78;9.10;;;;;;;;;;5028593;28;20221;-75
2023/12/12 14:06:57;;;;;;;35.55;8.82;;;;;;;;;;5028160;28;20294;-75
2023/12/12 14:09:22;;;;;;;31.25;8.23;;;;;;;;;;5032601;28;20189;-75
2023/12/12 14:11:48;;;;;;;22.35;7.55;;;;;;;;;;5006839;28;20244;-75